Time;durP1;ratioP1;P1;durP2;ratioP2;P2;SDS_P1;SDS_P2;PMS_P1;PMS_P2;Temp;Humidity;BMP_temperature;BMP_pressure;BME280_temperature;BME280_humidity;BME280_pressure;Samples;Min_cycle;Max_cycle;Signal;HPM_P1;HPM_P2
2022/04/13 00:00:56;;;;;;;9.80;3.62;;;;;;;6.92;50.97;99196.84;4379798;32;20111;-69
2022/04/13 00:03:23;;;;;;;7.90;3.37;;;;;;;6.77;51.38;99197.03;4379733;32;20082;-69
2022/04/13 00:05:50;;;;;;;7.35;3.50;;;;;;;6.68;50.98;99194.09;4379719;32;20102;-69
2022/04/13 00:08:18;;;;;;;6.93;3.62;;;;;;;6.68;51.54;99199.31;4379724;32;20156;-69
2022/04/13 00:10:45;;;;;;;7.53;3.67;;;;;;;6.54;51.95;99204.59;4379862;32;20118;-69
2022/04/13 00:13:13;;;;;;;6.55;3.47;;;;;;;6.72;51.71;99205.16;4379692;32;20107;-69
2022/04/13 00:15:41;;;;;;;11.25;3.87;;;;;;;6.61;51.44;99202.44;4379671;32;20087;-69
2022/04/13 00:18:09;;;;;;;7.37;4.00;;;;;;;6.46;52.43;99207.69;4379672;32;20107;-69
2022/04/13 00:20:36;;;;;;;7.35;3.78;;;;;;;6.46;51.50;99210.28;4379656;32;20128;-69
2022/04/13 00:23:04;;;;;;;9.13;3.42;;;;;;;6.59;51.43;99204.31;4379590;32;20150;-69
2022/04/13 00:25:33;;;;;;;8.57;3.45;;;;;;;6.47;51.14;99206.78;4379855;32;20117;-69
2022/04/13 00:28:00;;;;;;;6.40;3.40;;;;;;;6.59;51.84;99214.72;4379433;32;20090;-69
2022/04/13 00:30:27;;;;;;;6.93;3.12;;;;;;;6.55;51.86;99211.47;4379471;32;20491;-69
2022/04/13 00:32:55;;;;;;;6.30;3.35;;;;;;;6.46;51.89;99205.09;4379509;32;20121;-69
2022/04/13 00:35:22;;;;;;;6.10;3.28;;;;;;;6.61;51.71;99202.44;4379597;32;20091;-69
2022/04/13 00:37:49;;;;;;;6.12;3.53;;;;;;;6.70;50.97;99201.81;4379581;32;20102;-69
2022/04/13 00:40:17;;;;;;;6.70;3.15;;;;;;;6.46;51.23;99202.50;4379462;32;20094;-69
2022/04/13 00:42:44;;;;;;;6.35;4.05;;;;;;;6.50;51.86;99201.34;4379640;32;20087;-69
2022/04/13 00:45:11;;;;;;;6.60;3.47;;;;;;;6.44;51.41;99206.97;4366064;32;20153;-69
2022/04/13 00:47:40;;;;;;;7.10;3.20;;;;;;;6.63;50.04;99211.81;4379587;32;20095;-69
2022/04/13 00:50:10;;;;;;;5.90;3.80;;;;;;;6.56;51.27;99208.75;4379503;32;20158;-69
2022/04/13 00:52:41;;;;;;;5.75;3.20;;;;;;;6.59;51.07;99206.91;4379280;32;20095;-69
2022/04/13 00:55:09;;;;;;;7.15;3.33;;;;;;;6.51;51.24;99205.63;4366233;32;20105;-69
2022/04/13 00:57:37;;;;;;;8.40;3.42;;;;;;;6.47;51.08;99206.78;4365988;32;20107;-69
2022/04/13 01:00:07;;;;;;;6.45;2.85;;;;;;;6.57;50.97;99215.66;4379482;32;20122;-69
2022/04/13 01:02:36;;;;;;;8.02;3.65;;;;;;;6.51;51.67;99208.25;4379328;32;20121;-69
2022/04/13 01:05:06;;;;;;;5.90;3.28;;;;;;;6.41;51.48;99207.16;4379313;32;20110;-69
2022/04/13 01:07:35;;;;;;;9.57;3.78;;;;;;;6.37;51.58;99218.69;4379239;32;20117;-69
2022/04/13 01:10:06;;;;;;;7.18;3.10;;;;;;;6.31;51.22;99214.72;4379315;32;20099;-69
2022/04/13 01:12:35;;;;;;;5.53;3.58;;;;;;;6.33;50.60;99207.66;4379298;32;20212;-69
2022/04/13 01:15:04;;;;;;;5.45;2.78;;;;;;;6.39;51.24;99216.84;4379214;32;20113;-69
2022/04/13 01:17:31;;;;;;;6.57;2.85;;;;;;;6.41;50.47;99207.16;4379287;32;20254;-69
2022/04/13 01:20:01;;;;;;;5.65;2.90;;;;;;;6.47;50.84;99211.97;4379498;32;20149;-69
2022/04/13 01:22:28;;;;;;;5.15;2.92;;;;;;;6.34;51.05;99214.56;4379258;32;20079;-69
2022/04/13 01:24:55;;;;;;;6.72;3.25;;;;;;;6.47;49.88;99219.78;4379170;32;20083;-69
2022/04/13 01:27:23;;;;;;;6.05;2.87;;;;;;;6.43;49.74;99220.91;4379283;32;20381;-69
2022/04/13 01:29:54;;;;;;;7.57;3.42;;;;;;;6.43;50.00;99220.91;4379177;32;20746;-69
2022/04/13 01:32:21;;;;;;;5.37;3.30;;;;;;;6.40;50.28;99218.50;4379162;32;20079;-69
2022/04/13 01:34:50;;;;;;;5.55;3.00;;;;;;;6.31;50.49;99211.28;4365621;32;20086;-69
2022/04/13 01:37:18;;;;;;;6.72;3.05;;;;;;;6.46;50.11;99223.31;4379109;32;20091;-69
2022/04/13 01:39:45;;;;;;;5.62;3.72;;;;;;;6.44;50.39;99222.59;4364982;32;20106;-69
2022/04/13 01:42:12;;;;;;;6.53;2.72;;;;;;;6.41;50.19;99222.78;4379056;32;20606;-69
2022/04/13 01:44:43;;;;;;;5.45;2.97;;;;;;;6.39;50.09;99225.50;4365707;32;20095;-69
2022/04/13 01:47:10;;;;;;;4.37;2.92;;;;;;;6.40;49.61;99226.31;4379044;32;20099;-69
2022/04/13 01:49:38;;;;;;;5.40;3.15;;;;;;;6.38;49.61;99228.19;4378994;32;20098;-69
2022/04/13 01:52:07;;;;;;;10.23;4.32;;;;;;;6.31;50.22;99239.91;4378628;32;20087;-69
2022/04/13 01:54:35;;;;;;;7.32;3.20;;;;;;;6.35;50.11;99231.00;4379030;32;20079;-69
2022/04/13 01:57:03;;;;;;;5.85;3.42;;;;;;;6.43;50.04;99235.69;4378779;32;20099;-69
2022/04/13 01:59:30;;;;;;;6.97;3.10;;;;;;;6.39;49.94;99237.69;4379030;32;20429;-69
2022/04/13 02:01:57;;;;;;;4.43;2.67;;;;;;;6.29;50.49;99237.41;4379128;32;20158;-69
2022/04/13 02:04:26;;;;;;;5.07;2.85;;;;;;;6.30;50.04;99235.62;4378918;32;20126;-69
2022/04/13 02:06:54;;;;;;;5.78;3.15;;;;;;;6.24;49.83;99233.44;4378789;32;20468;-69
2022/04/13 02:09:21;;;;;;;7.70;3.45;;;;;;;6.14;50.70;99235.78;4378795;32;20091;-69
2022/04/13 02:11:48;;;;;;;7.10;3.75;;;;;;;6.16;51.25;99244.31;4378485;32;20163;-69
2022/04/13 02:14:16;;;;;;;7.22;3.03;;;;;;;6.10;50.98;99247.31;4379017;32;20082;-69
2022/04/13 02:16:43;;;;;;;5.68;3.17;;;;;;;6.04;50.51;99238.13;4378719;32;20556;-69
2022/04/13 02:19:12;;;;;;;5.57;3.05;;;;;;;6.07;50.80;99245.75;4378586;32;20120;-69
2022/04/13 02:21:39;;;;;;;8.18;4.12;;;;;;;6.00;51.16;99239.28;4378626;32;20090;-69
2022/04/13 02:24:10;;;;;;;6.15;2.92;;;;;;;5.99;50.98;99248.00;4378506;32;20157;-69
2022/04/13 02:26:37;;;;;;;6.65;3.70;;;;;;;6.01;51.12;99244.38;4378497;32;20457;-69
2022/04/13 02:29:04;;;;;;;6.40;3.60;;;;;;;5.95;51.48;99246.47;4378489;32;20105;-69
2022/04/13 02:31:32;;;;;;;8.32;3.85;;;;;;;5.93;51.60;99243.97;4378404;32;20090;-69
2022/04/13 02:33:59;;;;;;;6.43;3.25;;;;;;;5.89;51.18;99242.50;4378490;32;20127;-69
2022/04/13 02:36:26;;;;;;;10.23;3.20;;;;;;;5.81;51.29;99248.19;4378443;32;20370;-69
2022/04/13 02:38:54;;;;;;;4.95;3.25;;;;;;;5.96;50.77;99242.97;4378499;32;20781;-69
2022/04/13 02:41:21;;;;;;;8.48;3.42;;;;;;;5.91;51.81;99240.66;4378327;32;20150;-69
2022/04/13 02:43:48;;;;;;;7.87;3.78;;;;;;;5.94;51.18;99242.22;4378380;32;20087;-69
2022/04/13 02:46:15;;;;;;;7.68;3.33;;;;;;;5.86;51.56;99245.31;4378298;32;20149;-69
2022/04/13 02:48:43;;;;;;;4.97;3.22;;;;;;;5.75;52.43;99248.53;4378177;32;20121;-69
2022/04/13 02:51:10;;;;;;;9.57;3.58;;;;;;;5.71;51.71;99244.50;4377938;32;20091;-69
2022/04/13 02:53:37;;;;;;;8.45;4.15;;;;;;;5.71;52.21;99249.69;4379808;32;20515;-69
2022/04/13 02:56:05;;;;;;;11.32;3.67;;;;;;;5.68;52.82;99245.50;4380193;32;20102;-69
2022/04/13 02:58:32;;;;;;;6.80;3.55;;;;;;;5.72;52.70;99245.31;4380526;32;20429;-69
2022/04/13 03:00:59;;;;;;;9.63;3.83;;;;;;;5.69;51.91;99241.97;4380486;32;20421;-69
2022/04/13 03:03:27;;;;;;;7.25;3.90;;;;;;;5.76;52.08;99247.63;4380153;32;20091;-69
2022/04/13 03:05:54;;;;;;;8.75;3.90;;;;;;;5.72;52.84;99246.13;4380259;32;20102;-69
2022/04/13 03:08:21;;;;;;;5.78;3.75;;;;;;;5.72;52.42;99253.13;4380115;32;20124;-69
2022/04/13 03:10:49;;;;;;;9.23;4.50;;;;;;;5.64;53.22;99249.22;4380211;32;20095;-69
2022/04/13 03:13:16;;;;;;;7.20;3.75;;;;;;;5.56;52.76;99254.06;4379771;32;20079;-69
2022/04/13 03:15:43;;;;;;;7.72;3.92;;;;;;;5.49;54.18;99255.34;4380007;32;20102;-69
2022/04/13 03:18:10;;;;;;;6.22;3.92;;;;;;;5.43;53.83;99251.34;4380123;32;20156;-69
2022/04/13 03:20:37;;;;;;;9.00;3.72;;;;;;;5.47;53.60;99252.03;4380303;32;20109;-69
2022/04/13 03:23:05;;;;;;;11.07;4.62;;;;;;;5.43;53.50;99253.13;4380060;32;20153;-69
2022/04/13 03:25:33;;;;;;;9.13;4.10;;;;;;;5.45;54.06;99252.13;4379980;32;20126;-69
2022/04/13 03:28:00;;;;;;;9.40;4.45;;;;;;;5.53;53.76;99258.59;4380000;32;20083;-69
2022/04/13 03:30:28;;;;;;;8.40;4.15;;;;;;;5.43;53.90;99266.94;4380031;32;20397;-69
2022/04/13 03:32:56;;;;;;;8.93;4.10;;;;;;;5.43;53.95;99260.91;4379740;32;20079;-69
2022/04/13 03:35:24;;;;;;;7.47;3.60;;;;;;;5.37;54.06;99267.31;4380026;32;20102;-69
2022/04/13 03:37:51;;;;;;;21.58;5.03;;;;;;;5.28;54.28;99278.25;4380270;32;20425;-69
2022/04/13 03:40:18;;;;;;;20.40;4.18;;;;;;;5.25;55.13;99270.63;4379882;32;20091;-69
2022/04/13 03:42:46;;;;;;;8.63;4.15;;;;;;;5.31;54.91;99272.88;4366479;32;20149;-69
2022/04/13 03:45:14;;;;;;;6.82;3.95;;;;;;;5.22;54.45;99271.66;4379921;32;20098;-69
2022/04/13 03:47:41;;;;;;;9.50;4.37;;;;;;;5.22;54.66;99274.25;4380078;32;20441;-69
2022/04/13 03:50:09;;;;;;;8.80;4.18;;;;;;;5.14;54.39;99279.91;4379830;32;20086;-69
2022/04/13 03:52:37;;;;;;;10.02;4.05;;;;;;;5.19;54.85;99284.00;4379493;32;20086;-69
2022/04/13 03:55:06;;;;;;;8.55;3.80;;;;;;;5.10;55.32;99286.22;4379821;32;20102;-69
2022/04/13 03:57:34;;;;;;;6.60;3.90;;;;;;;4.96;55.60;99283.56;4379825;32;20153;-69
2022/04/13 04:00:02;;;;;;;9.73;4.80;;;;;;;4.88;55.73;99280.59;4366020;32;20121;-69
2022/04/13 04:02:39;;;;;;;10.10;4.55;;;;;;;4.86;56.24;99285.03;4379741;32;20413;-69
2022/04/13 04:08:37;;;;;;;14.60;5.50;;;;;;;4.74;56.87;99286.56;4379730;32;20173;-69
2022/04/13 04:11:05;;;;;;;12.02;5.80;;;;;;;4.68;57.37;99290.34;4379621;32;20106;-69
2022/04/13 04:13:32;;;;;;;12.75;6.75;;;;;;;4.62;57.72;99290.69;4379432;32;20091;-69
2022/04/13 04:16:00;;;;;;;16.80;7.60;;;;;;;4.60;57.77;99293.38;4379702;32;20102;-69
2022/04/13 04:18:28;;;;;;;13.52;6.93;;;;;;;4.63;57.96;99292.34;4379603;32;20142;-69
2022/04/13 04:20:55;;;;;;;15.32;7.50;;;;;;;4.59;57.65;99290.88;4379834;32;20468;-69
2022/04/13 04:23:24;;;;;;;14.05;6.85;;;;;;;4.61;58.11;99284.66;4379646;32;20552;-69
2022/04/13 04:25:51;;;;;;;14.52;6.32;;;;;;;4.60;58.17;99295.13;4378465;32;20099;-69
2022/04/13 04:28:18;;;;;;;20.33;7.65;;;;;;;4.63;58.08;99287.16;4379549;32;20094;-69
2022/04/13 04:30:45;;;;;;;17.95;7.03;;;;;;;4.77;57.87;99297.63;4379684;32;20087;-69
2022/04/13 04:33:13;;;;;;;18.00;6.68;;;;;;;4.82;57.73;99297.34;4379440;32;20091;-69
2022/04/13 04:35:40;;;;;;;12.32;6.45;;;;;;;4.88;57.55;99306.56;4379523;32;20117;-69
2022/04/13 04:38:07;;;;;;;27.70;11.40;;;;;;;4.98;57.41;99310.28;4379731;32;20102;-69
2022/04/13 04:40:34;;;;;;;76.28;23.12;;;;;;;5.06;56.82;99308.09;4379417;32;20145;-69
2022/04/13 04:43:01;;;;;;;106.18;30.65;;;;;;;5.15;56.63;99310.16;4379433;32;20091;-69
2022/04/13 04:45:29;;;;;;;81.82;28.65;;;;;;;5.34;55.66;99309.06;4379414;32;20457;-69
2022/04/13 04:48:04;;;;;;;45.42;17.85;;;;;;;5.40;55.50;99303.50;4379407;32;20122;-69
2022/04/13 04:50:31;;;;;;;29.25;12.55;;;;;;;5.49;55.34;99312.50;4379442;32;20105;-69
2022/04/13 04:52:59;;;;;;;28.55;11.95;;;;;;;5.67;55.50;99308.81;4379070;32;20166;-69
2022/04/13 04:55:26;;;;;;;25.92;12.60;;;;;;;5.89;54.21;99306.66;4379277;32;20100;-69
2022/04/13 04:57:53;;;;;;;22.52;11.10;;;;;;;6.00;53.90;99312.91;4379317;32;20090;-69
2022/04/13 05:00:21;;;;;;;17.23;9.63;;;;;;;6.10;53.98;99320.16;4379063;32;20082;-69
2022/04/13 05:06:23;;;;;;;17.55;7.37;;;;;;;6.41;53.33;99316.47;4379225;32;20469;-69
2022/04/13 05:08:51;;;;;;;11.18;5.68;;;;;;;6.65;52.62;99323.66;4379011;32;20091;-69
2022/04/13 05:11:18;;;;;;;10.98;4.90;;;;;;;6.75;52.16;99316.91;4379112;32;20090;-69
2022/04/13 05:13:52;;;;;;;11.75;5.87;;;;;;;6.85;52.54;99324.97;4379098;32;20102;-69
2022/04/13 05:16:20;;;;;;;14.80;4.80;;;;;;;6.99;51.94;99322.28;4364279;32;20155;-69
2022/04/13 05:18:47;;;;;;;11.88;4.85;;;;;;;7.01;51.05;99320.44;4379040;32;20441;-69
2022/04/13 05:21:15;;;;;;;13.23;4.35;;;;;;;7.06;50.58;99318.34;4365237;32;20117;-69
2022/04/13 05:23:42;;;;;;;10.48;5.15;;;;;;;7.20;50.66;99327.03;4379122;32;20112;-69
2022/04/13 05:26:10;;;;;;;24.25;4.72;;;;;;;7.30;50.64;99325.50;4378861;32;20161;-69
2022/04/13 05:28:37;;;;;;;7.45;4.45;;;;;;;7.36;50.15;99326.81;4378747;32;20099;-69
2022/04/13 05:31:05;;;;;;;11.07;4.55;;;;;;;7.55;50.32;99339.47;4378650;32;20517;-69
2022/04/13 05:33:32;;;;;;;9.65;4.93;;;;;;;7.55;48.84;99344.69;4378822;32;20091;-70
2022/04/13 05:39:30;;;;;;;12.60;4.20;;;;;;;7.78;49.79;99343.13;4379185;32;20593;-69
2022/04/13 05:41:58;;;;;;;17.27;4.07;;;;;;;7.96;48.25;99352.31;4379229;32;20074;-70
2022/04/13 05:47:55;;;;;;;14.15;4.22;;;;;;;8.13;48.37;99355.50;4378908;32;20448;-68
2022/04/13 05:50:23;;;;;;;13.00;4.62;;;;;;;8.16;48.25;99355.28;4378891;32;20111;-69
2022/04/13 05:52:50;;;;;;;21.02;4.43;;;;;;;8.25;47.24;99352.03;4378250;32;20544;-70
2022/04/13 05:55:17;;;;;;;7.72;4.15;;;;;;;8.32;46.85;99350.66;4378713;32;20078;-71
2022/04/13 05:57:44;;;;;;;16.95;5.93;;;;;;;8.46;48.19;99357.56;4378770;32;20466;-73
2022/04/13 06:00:13;;;;;;;8.55;4.50;;;;;;;8.44;47.08;99354.22;4378690;32;20090;-71
2022/04/13 06:02:41;;;;;;;18.95;4.82;;;;;;;8.69;47.17;99358.53;4378644;32;20121;-72
2022/04/13 06:08:40;;;;;;;8.30;4.68;;;;;;;8.72;48.20;99362.69;4378560;32;20539;-70
2022/04/13 06:11:07;;;;;;;10.45;4.78;;;;;;;8.93;46.95;99365.50;4378614;32;20129;-71
2022/04/13 06:13:35;;;;;;;24.25;6.20;;;;;;;8.93;46.36;99368.13;4378569;32;20117;-71
2022/04/13 06:16:02;;;;;;;11.20;5.20;;;;;;;9.05;46.73;99371.62;4378358;32;20112;-71
2022/04/13 06:18:30;;;;;;;14.73;4.80;;;;;;;9.17;46.84;99382.97;4378485;32;20507;-72
2022/04/13 06:20:57;;;;;;;10.40;4.80;;;;;;;9.27;45.67;99383.97;4378810;32;20471;-72
2022/04/13 06:23:24;;;;;;;10.25;4.90;;;;;;;9.30;46.95;99388.97;4378560;32;20592;-72
2022/04/13 06:25:51;;;;;;;6.72;4.40;;;;;;;9.36;47.90;99385.88;4378510;32;20235;-72
2022/04/13 06:28:19;;;;;;;8.32;5.37;;;;;;;9.52;46.19;99387.34;4380306;32;20102;-71
2022/04/13 06:30:46;;;;;;;10.55;5.30;;;;;;;9.53;46.64;99389.03;4366623;32;20098;-72
2022/04/13 06:33:14;;;;;;;8.38;4.93;;;;;;;9.57;46.42;99387.84;4380208;32;20099;-72
2022/04/13 06:35:41;;;;;;;9.30;4.82;;;;;;;9.58;47.21;99389.50;4380266;32;20070;-72
2022/04/13 06:38:08;;;;;;;11.57;5.15;;;;;;;9.95;46.61;99391.97;4380264;32;20095;-71
2022/04/13 06:40:36;;;;;;;14.43;5.55;;;;;;;9.89;45.65;99390.63;4380356;32;20091;-71
2022/04/13 06:43:03;;;;;;;10.27;4.62;;;;;;;10.06;44.96;99397.19;4380196;32;20117;-71
2022/04/13 06:45:30;;;;;;;11.70;5.55;;;;;;;10.04;45.31;99399.09;4380465;32;20113;-70
2022/04/13 06:51:27;;;;;;;11.35;4.62;;;;;;;10.33;44.90;99403.03;4380245;32;20118;-71
2022/04/13 06:53:54;;;;;;;10.40;4.60;;;;;;;10.35;43.82;99401.97;4365168;32;20511;-70
2022/04/13 06:59:52;;;;;;;15.35;5.10;;;;;;;10.51;43.36;99406.00;4365362;32;20158;-70
2022/04/13 07:02:19;;;;;;;9.57;4.47;;;;;;;10.45;44.37;99402.09;4364910;32;20122;-71
2022/04/13 07:04:47;;;;;;;9.18;4.35;;;;;;;10.45;43.39;99409.97;4365000;32;20082;-70
2022/04/13 07:11:05;;;;;;;8.85;4.50;;;;;;;10.74;42.94;99407.66;4365169;32;20126;-70
2022/04/13 07:13:32;;;;;;;8.98;4.07;;;;;;;10.67;42.66;99405.63;4365149;32;20117;-71
2022/04/13 07:19:18;;;;;;;8.50;4.50;;;;;;;11.03;42.30;99404.47;4365014;32;20140;-71
2022/04/13 07:21:45;;;;;;;8.95;4.80;;;;;;;11.02;42.88;99410.66;4364796;32;20119;-72
2022/04/13 07:28:04;;;;;;;12.40;4.80;;;;;;;11.26;42.21;99417.50;4365032;32;20112;-71
2022/04/13 07:30:31;;;;;;;12.90;4.97;;;;;;;11.38;42.71;99413.03;4364784;32;20493;-69
2022/04/13 07:36:30;;;;;;;11.60;5.70;;;;;;;11.67;42.91;99421.13;4364940;32;20145;-71
2022/04/13 07:38:57;;;;;;;10.95;5.15;;;;;;;11.33;42.38;99422.13;4364348;32;20117;-70
2022/04/13 07:44:55;;;;;;;9.27;5.95;;;;;;;11.41;42.27;99425.91;4364909;32;20130;-71
2022/04/13 07:47:26;;;;;;;11.95;6.22;;;;;;;11.33;41.93;99435.22;4365016;32;20107;-70
2022/04/13 07:49:54;;;;;;;11.45;6.80;;;;;;;11.43;41.86;99432.69;4364752;32;20487;-70
2022/04/13 07:52:21;;;;;;;11.12;5.50;;;;;;;11.49;42.63;99434.81;4369773;32;20078;-70
2022/04/13 07:58:18;;;;;;;11.68;5.62;;;;;;;11.82;41.10;99440.00;4379625;32;20480;-70
2022/04/13 08:04:16;;;;;;;8.65;4.57;;;;;;;12.28;41.13;99437.94;4379389;32;20137;-70
2022/04/13 08:06:55;;;;;;;14.02;5.50;;;;;;;12.20;39.91;99442.06;4379787;32;20095;-70
2022/04/13 08:09:23;;;;;;;7.03;4.97;;;;;;;12.14;40.98;99439.09;4379612;32;20090;-70
2022/04/13 08:11:52;;;;;;;7.62;5.03;;;;;;;12.27;44.20;99447.59;4379495;32;20159;-70
2022/04/13 08:14:40;;;;;;;8.52;4.62;;;;;;;12.38;43.10;99441.44;4379517;32;20166;-70
2022/04/13 08:20:25;;;;;;;7.78;5.47;;;;;;;12.32;39.21;99444.59;4379369;32;20392;-71
2022/04/13 08:22:52;;;;;;;13.38;5.40;;;;;;;12.35;39.83;99442.53;4379502;32;20095;-70
2022/04/13 08:25:19;;;;;;;11.80;6.07;;;;;;;12.19;40.33;99440.38;4379395;32;20083;-70
2022/04/13 08:27:46;;;;;;;22.20;5.95;;;;;;;12.28;40.72;99445.81;4379368;32;20111;-70
2022/04/13 08:30:14;;;;;;;9.02;5.15;;;;;;;12.42;39.96;99438.41;4379280;32;20111;-70
2022/04/13 08:36:12;;;;;;;20.30;4.18;;;;;;;12.74;42.19;99444.47;4379483;32;20153;-70
2022/04/13 08:42:13;;;;;;;9.63;4.70;;;;;;;12.62;38.44;99451.63;4379100;32;20117;-70
2022/04/13 08:48:12;;;;;;;10.13;4.75;;;;;;;12.68;37.95;99445.81;4379252;32;20104;-70
2022/04/13 08:54:22;;;;;;;10.52;4.65;;;;;;;12.94;43.42;99438.28;4378591;32;20126;-70
2022/04/13 08:56:50;;;;;;;9.05;3.97;;;;;;;13.08;39.42;99444.09;4365871;32;20153;-70
2022/04/13 08:59:43;;;;;;;7.00;3.95;;;;;;;13.19;36.78;99451.87;4368100;32;20460;-70
2022/04/13 09:05:43;;;;;;;14.13;5.85;;;;;;;13.63;38.38;99440.97;4379066;32;20122;-69
2022/04/13 09:08:22;;;;;;;7.75;4.32;;;;;;;13.62;37.28;99440.12;4365374;32;20448;-70
2022/04/13 09:10:53;;;;;;;10.02;4.70;;;;;;;13.32;36.56;99436.66;4378762;32;20079;-70
2022/04/13 09:13:24;;;;;;;9.13;4.85;;;;;;;13.37;38.93;99440.69;4379241;32;20157;-70
2022/04/13 09:15:52;;;;;;;8.55;4.40;;;;;;;13.45;40.55;99446.13;4378988;32;20539;-70
2022/04/13 09:18:20;;;;;;;9.27;5.18;;;;;;;13.75;38.87;99441.66;4379092;32;20116;-70
2022/04/13 09:20:47;;;;;;;9.60;4.65;;;;;;;13.93;39.00;99441.75;4378843;32;20437;-70
2022/04/13 09:23:15;;;;;;;8.07;4.53;;;;;;;14.24;40.18;99431.00;4379159;32;20102;-70
2022/04/13 09:25:43;;;;;;;7.72;4.00;;;;;;;14.27;37.35;99439.44;4378964;32;20479;-70
2022/04/13 09:31:41;;;;;;;6.82;3.40;;;;;;;14.16;35.79;99439.63;4378957;32;20510;-70
2022/04/13 09:34:09;;;;;;;14.70;4.05;;;;;;;14.61;38.10;99438.06;4365104;32;20126;-70
2022/04/13 09:36:37;;;;;;;8.02;4.03;;;;;;;14.64;38.89;99428.09;4378637;32;20090;-70
2022/04/13 09:39:04;;;;;;;8.65;3.97;;;;;;;14.95;37.25;99427.75;4378616;32;20117;-70
2022/04/13 09:45:03;;;;;;;9.75;4.18;;;;;;;14.68;34.28;99428.59;4378818;32;20165;-70
2022/04/13 09:47:33;;;;;;;19.60;4.60;;;;;;;14.37;34.30;99431.50;4378302;32;20110;-70
2022/04/13 09:53:30;;;;;;;8.32;3.87;;;;;;;14.30;34.53;99420.69;4378479;32;20503;-70
2022/04/13 09:56:02;;;;;;;16.00;4.50;;;;;;;14.43;37.05;99424.81;4378585;32;20170;-70
2022/04/13 09:58:30;;;;;;;11.05;4.07;;;;;;;14.49;35.99;99421.59;4378877;32;20086;-69
2022/04/13 10:01:02;;;;;;;18.15;5.45;;;;;;;14.45;33.64;99423.69;4378039;32;20158;-69
2022/04/13 10:03:30;;;;;;;8.25;4.85;;;;;;;14.41;37.63;99432.03;4378766;32;20142;-70
2022/04/13 10:05:59;;;;;;;9.35;4.37;;;;;;;14.49;39.49;99418.97;4378759;32;20205;-70
2022/04/13 10:08:27;;;;;;;9.73;4.10;;;;;;;14.73;35.35;99414.00;4378918;32;20086;-69
2022/04/13 10:14:26;;;;;;;6.97;4.60;;;;;;;14.54;36.63;99414.91;4378550;32;20534;-70
2022/04/13 10:16:56;;;;;;;9.82;5.72;;;;;;;14.64;37.51;99409.62;4378663;32;20390;-70
2022/04/13 10:19:23;;;;;;;8.52;4.97;;;;;;;14.73;37.95;99416.66;4378455;32;20437;-68
2022/04/13 10:21:52;;;;;;;9.32;5.43;;;;;;;14.99;37.54;99420.34;4364640;32;20139;-70
2022/04/13 10:24:30;;;;;;;7.55;4.87;;;;;;;14.94;36.63;99417.34;4378317;32;20162;-70
2022/04/13 10:27:08;;;;;;;11.00;4.87;;;;;;;15.10;37.39;99421.97;4378140;32;20109;-71
2022/04/13 10:29:41;;;;;;;15.25;5.50;;;;;;;15.19;36.22;99407.88;4378175;32;20099;-71
2022/04/13 10:32:08;;;;;;;14.93;5.32;;;;;;;15.02;33.07;99406.87;4365000;32;20141;-70
2022/04/13 10:38:07;;;;;;;12.57;6.28;;;;;;;15.42;39.50;99411.69;4377851;32;20169;-71
2022/04/13 10:40:41;;;;;;;15.60;5.45;;;;;;;15.39;33.94;99400.59;4378193;32;20095;-71
2022/04/13 10:43:11;;;;;;;11.95;6.07;;;;;;;15.37;34.40;99398.13;4378021;32;20075;-71
2022/04/13 10:45:46;;;;;;;15.68;5.87;;;;;;;15.51;38.30;99388.81;4377869;32;20117;-70
2022/04/13 10:48:22;;;;;;;10.93;5.68;;;;;;;15.58;35.46;99394.34;4377756;32;20149;-70
2022/04/13 10:51:12;;;;;;;12.65;6.97;;;;;;;15.57;35.84;99396.12;4364081;32;20489;-71
2022/04/13 10:53:55;;;;;;;9.32;6.05;;;;;;;15.82;39.18;99387.56;4377817;32;20087;-71
2022/04/13 10:56:27;;;;;;;13.80;6.20;;;;;;;16.17;39.33;99388.41;4378030;32;20095;-71
2022/04/13 10:58:58;;;;;;;9.68;5.90;;;;;;;16.53;39.64;99378.47;4377990;32;20095;-70
2022/04/13 11:01:42;;;;;;;11.82;6.70;;;;;;;16.52;36.61;99376.00;4378113;32;20491;-70
2022/04/13 11:04:16;;;;;;;18.12;6.90;;;;;;;16.22;35.71;99380.84;4364933;32;20112;-70
2022/04/13 11:10:19;;;;;;;12.40;5.93;;;;;;;15.94;37.86;99378.38;4377587;32;20173;-70
2022/04/13 11:16:24;;;;;;;13.55;5.95;;;;;;;16.54;40.07;99371.41;4379977;32;20190;-70
2022/04/13 11:19:15;;;;;;;12.88;7.07;;;;;;;16.78;35.94;99362.69;4379944;32;20074;-70
2022/04/13 11:26:01;;;;;;;9.02;6.20;;;;;;;16.82;35.90;99356.91;4379956;32;20145;-70
2022/04/13 11:32:02;;;;;;;11.65;6.60;;;;;;;16.44;34.00;99351.19;4379791;32;20105;-70
2022/04/13 11:34:36;;;;;;;14.70;6.07;;;;;;;16.88;35.76;99344.03;4379866;32;20114;-70
2022/04/13 11:40:34;;;;;;;11.18;5.57;;;;;;;17.05;35.62;99337.78;4379715;32;20164;-71
2022/04/13 11:43:02;;;;;;;8.85;5.50;;;;;;;17.14;36.05;99339.44;4379605;32;20146;-70
2022/04/13 11:45:30;;;;;;;13.00;5.93;;;;;;;17.34;38.14;99339.09;4379709;32;20098;-71
2022/04/13 11:48:03;;;;;;;11.93;5.82;;;;;;;17.29;33.41;99336.09;4379913;32;20126;-71
2022/04/13 11:50:36;;;;;;;;;;;;;;;16.98;32.00;99329.66;4380186;32;20086;-71
2022/04/13 11:56:11;;;;;;;10.90;5.20;;;;;;;17.57;33.79;99333.94;4378604;32;20129;-71
2022/04/13 12:02:09;;;;;;;15.60;5.47;;;;;;;17.79;34.18;99337.69;4379684;32;20149;-71
2022/04/13 12:08:11;;;;;;;10.13;5.85;;;;;;;17.50;34.97;99323.19;4379788;32;20121;-71
2022/04/13 12:14:12;;;;;;;15.38;5.87;;;;;;;17.32;30.58;99317.22;4379125;32;20189;-70
2022/04/13 12:20:27;;;;;;;12.85;5.43;;;;;;;17.27;36.16;99311.62;4379544;32;20130;-70
2022/04/13 12:26:33;;;;;;;11.52;5.07;;;;;;;17.00;35.29;99301.22;4379554;32;20276;-71
2022/04/13 12:32:30;;;;;;;9.63;5.30;;;;;;;17.55;34.07;99299.66;4379634;32;20122;-70
2022/04/13 12:38:32;;;;;;;10.45;5.68;;;;;;;17.97;34.91;99299.56;4379618;32;20149;-70
2022/04/13 12:44:30;;;;;;;10.18;6.22;;;;;;;18.32;34.11;99281.47;4379493;32;20545;-71
2022/04/13 12:50:27;;;;;;;17.62;6.45;;;;;;;18.13;31.66;99278.28;4379156;32;20610;-71
2022/04/13 12:56:34;;;;;;;11.77;5.90;;;;;;;17.54;31.09;99276.78;4379238;32;20221;-70
2022/04/13 12:59:02;;;;;;;10.60;5.87;;;;;;;17.88;33.92;99273.06;4379540;32;20508;-70
2022/04/13 13:01:33;;;;;;;10.45;5.57;;;;;;;17.78;32.46;99271.63;4379407;32;20149;-71
2022/04/13 13:04:12;;;;;;;10.63;6.00;;;;;;;17.84;30.37;99266.44;4379193;32;20141;-71
2022/04/13 13:10:09;;;;;;;20.75;6.55;;;;;;;17.95;33.92;99254.66;4379309;32;20116;-71
2022/04/13 13:12:37;;;;;;;13.88;6.20;;;;;;;17.63;35.63;99256.41;4379020;32;20148;-71
2022/04/13 13:18:34;;;;;;;114.00;10.15;;;;;;;17.79;32.77;99252.91;4379327;32;20122;-71
2022/04/13 13:21:02;;;;;;;11.63;5.65;;;;;;;18.03;33.37;99249.34;4379090;32;20090;-71
2022/04/13 13:27:05;;;;;;;12.43;5.62;;;;;;;18.07;30.24;99249.81;4379091;32;20469;-71
2022/04/13 13:29:32;;;;;;;11.45;4.95;;;;;;;18.11;33.32;99255.56;4379149;32;20546;-71
2022/04/13 13:35:32;;;;;;;8.88;5.22;;;;;;;18.49;33.08;99234.47;4378518;32;20561;-71
2022/04/13 13:38:16;;;;;;;10.45;5.55;;;;;;;18.94;29.01;99235.44;4378695;32;20149;-71
2022/04/13 13:40:45;;;;;;;;;;;;;;;19.26;27.98;99231.66;4379422;32;20110;-71
2022/04/13 13:43:16;;;;;;;9.20;5.78;;;;;;;19.60;28.89;99227.62;4378915;32;20331;-71
2022/04/13 13:45:49;;;;;;;8.57;5.03;;;;;;;19.72;29.07;99227.19;4378393;32;20503;-71
2022/04/13 13:48:25;;;;;;;;;;;;;;;19.95;31.87;99222.56;4372805;32;20074;-69
2022/04/13 13:50:54;;;;;;;12.15;5.82;;;;;;;19.86;28.52;99223.69;4378606;32;19978;-69
2022/04/13 13:53:24;;;;;;;16.00;5.95;;;;;;;19.52;31.14;99221.63;4378399;32;20107;-69
2022/04/13 13:55:51;;;;;;;26.75;6.55;;;;;;;18.96;30.08;99212.22;4378320;32;20098;-69
2022/04/13 13:58:19;;;;;;;10.77;5.60;;;;;;;18.84;30.77;99217.09;4378814;32;20075;-69
2022/04/13 14:00:47;;;;;;;13.95;6.53;;;;;;;19.20;30.41;99218.28;4378617;32;20122;-69
2022/04/13 14:03:16;;;;;;;10.02;5.57;;;;;;;19.36;30.57;99215.44;4378411;32;20172;-69
2022/04/13 14:05:45;;;;;;;11.18;4.80;;;;;;;19.62;30.37;99212.34;4378855;32;20106;-69
2022/04/13 14:08:13;;;;;;;15.10;5.95;;;;;;;19.57;31.21;99217.38;4378268;32;20091;-69
2022/04/13 14:10:42;;;;;;;16.83;6.05;;;;;;;19.20;27.78;99208.50;4378472;32;20098;-69
2022/04/13 14:13:13;;;;;;;13.15;5.65;;;;;;;19.49;27.57;99207.66;4378419;32;20152;-69
2022/04/13 14:15:41;;;;;;;9.48;5.28;;;;;;;19.33;28.43;99208.69;4378285;32;20130;-69
2022/04/13 14:18:09;;;;;;;10.65;5.65;;;;;;;19.27;31.20;99205.91;4378414;32;20149;-69
2022/04/13 14:23:55;;;;;;;11.25;5.87;;;;;;;19.35;30.76;99205.00;4378563;32;20133;-69